Time;durP1;ratioP1;P1;durP2;ratioP2;P2;SDS_P1;SDS_P2;PMS_P1;PMS_P2;Temp;Humidity;BMP_temperature;BMP_pressure;BME280_temperature;BME280_humidity;BME280_pressure;Samples;Min_cycle;Max_cycle;Signal;HPM_P1;HPM_P2
2021/08/30 00:02:20;;;;;;;;;;;;;;;13.31;100.00;96439.81;5054466;28;20001;-76
2021/08/30 00:04:46;;;;;;;;;;;;;;;13.31;100.00;96439.00;5054348;28;20427;-78
2021/08/30 00:07:12;;;;;;;;;;;;;;;13.31;100.00;96439.00;5054667;28;19973;-76
2021/08/30 00:09:38;;;;;;;;;;;;;;;13.32;100.00;96435.34;5054173;28;20414;-78
2021/08/30 00:12:04;;;;;;;;;;;;;;;13.31;100.00;96434.56;5054547;28;20043;-77
2021/08/30 00:14:31;;;;;;;;;;;;;;;13.30;100.00;96432.94;5054589;28;20346;-77
2021/08/30 00:17:00;;;;;;;;;;;;;;;13.31;100.00;96442.47;5052562;28;19969;-77
2021/08/30 00:19:28;;;;;;;;;;;;;;;13.30;100.00;96440.84;5053074;28;19975;-77
2021/08/30 00:21:54;;;;;;;;;;;;;;;13.30;100.00;96435.59;5054077;28;19992;-77
2021/08/30 00:24:24;;;;;;;;;;;;;;;13.27;100.00;96441.31;5054401;28;20401;-77
2021/08/30 00:26:54;;;;;;;;;;;;;;;13.20;100.00;96444.06;5053886;28;19979;-77
2021/08/30 00:29:26;;;;;;;;;;;;;;;13.19;100.00;96436.41;5054086;28;19967;-77
2021/08/30 00:31:52;;;;;;;;;;;;;;;13.18;100.00;96429.53;5054280;28;19978;-77
2021/08/30 00:34:18;;;;;;;;;;;;;;;13.17;100.00;96427.94;5054062;28;19971;-77
2021/08/30 00:36:44;;;;;;;;;;;;;;;13.18;100.00;96422.41;5053985;28;20023;-77
2021/08/30 00:39:10;;;;;;;;;;;;;;;13.19;100.00;96437.19;5053964;28;20019;-77
2021/08/30 00:41:36;;;;;;;;;;;;;;;13.19;100.00;96431.94;5054160;28;19994;-76
2021/08/30 00:44:02;;;;;;;;;;;;;;;13.20;100.00;96424.81;5053931;28;19977;-76
2021/08/30 00:46:29;;;;;;;;;;;;;;;13.21;100.00;96429.06;5053650;28;19981;-77
2021/08/30 00:48:55;;;;;;;;;;;;;;;13.20;100.00;96430.09;5053554;28;20519;-76
2021/08/30 00:51:21;;;;;;;;;;;;;;;13.19;100.00;96428.50;5053619;28;20021;-77
2021/08/30 00:53:47;;;;;;;;;;;;;;;13.20;100.00;96432.72;5052619;28;19984;-76
2021/08/30 00:56:13;;;;;;;;;;;;;;;13.22;100.00;96428.03;5053720;28;20446;-75
2021/08/30 00:58:41;;;;;;;;;;;;;;;13.23;100.00;96423.53;5053652;28;20013;-77
2021/08/30 01:01:07;;;;;;;;;;;;;;;13.24;100.00;96433.84;5053660;28;19987;-76
2021/08/30 01:03:33;;;;;;;;;;;;;;;13.25;100.00;96430.19;5052797;28;19965;-78
2021/08/30 01:06:03;;;;;;;;;;;;;;;13.26;100.00;96428.34;5053747;28;20056;-78
2021/08/30 01:08:31;;;;;;;;;;;;;;;13.26;100.00;96425.72;5053685;28;19996;-78
2021/08/30 01:11:03;;;;;;;;;;;;;;;13.29;100.00;96425.28;5053501;28;19977;-78
2021/08/30 01:13:36;;;;;;;;;;;;;;;13.29;100.00;96422.63;5053447;28;19988;-77
2021/08/30 01:16:07;;;;;;;;;;;;;;;13.27;100.00;96409.69;5053581;28;20343;-76
2021/08/30 01:18:34;;;;;;;;;;;;;;;13.29;100.00;96420.00;5053479;28;20299;-76
2021/08/30 01:21:06;;;;;;;;;;;;;;;13.28;100.00;96424.44;5053797;28;19985;-76
2021/08/30 01:23:35;;;;;;;;;;;;;;;13.28;100.00;96424.44;5053628;28;20005;-76
2021/08/30 01:26:02;;;;;;;;;;;;;;;13.29;100.00;96425.28;5053547;28;19980;-77
2021/08/30 01:28:32;;;;;;;;;;;;;;;13.28;100.00;96419.19;5053444;28;20006;-76
2021/08/30 01:30:59;;;;;;;;;;;;;;;13.27;100.00;96417.59;5053429;28;19981;-76
2021/08/30 01:33:26;;;;;;;;;;;;;;;13.28;100.00;96419.19;5053160;28;20006;-76
2021/08/30 01:35:52;;;;;;;;;;;;;;;13.28;100.00;96411.28;5053244;28;19993;-76
2021/08/30 01:38:19;;;;;;;;;;;;;;;13.29;100.00;96420.00;5053692;28;19983;-76
2021/08/30 01:40:45;;;;;;;;;;;;;;;13.29;100.00;96414.75;5053175;28;20004;-77
2021/08/30 01:43:11;;;;;;;;;;;;;;;13.30;100.00;96405.81;5053306;28;19997;-77
2021/08/30 01:45:38;;;;;;;;;;;;;;;13.29;100.00;96407.66;5053084;28;20339;-77
2021/08/30 01:48:06;;;;;;;;;;;;;;;13.29;100.00;96401.56;5053113;28;20358;-77
2021/08/30 01:50:32;;;;;;;;;;;;;;;13.25;100.00;96405.69;5053643;28;19998;-77
2021/08/30 01:53:04;;;;;;;;;;;;;;;13.23;100.00;96398.03;5052911;28;20006;-77
2021/08/30 02:00:46;;;;;;;;;;;;;;;13.13;100.00;96389.94;5056859;28;19976;-76
2021/08/30 02:03:17;;;;;;;;;;;;;;;13.13;100.00;96387.31;5056904;28;19994;-77
2021/08/30 02:05:44;;;;;;;;;;;;;;;13.11;100.00;96381.47;5056841;28;19992;-77
2021/08/30 02:08:10;;;;;;;;;;;;;;;13.10;100.00;96388.59;5056583;28;19980;-77
2021/08/30 02:10:36;;;;;;;;;;;;;;;13.08;100.00;96385.38;5056555;28;19967;-77
2021/08/30 02:13:02;;;;;;;;;;;;;;;13.08;100.00;96389.84;5055355;28;20095;-77
2021/08/30 02:15:28;;;;;;;;;;;;;;;13.07;100.00;96383.78;5056861;28;20458;-77
2021/08/30 02:18:02;;;;;;;;;;;;;;;13.05;100.00;96379.78;5056710;28;20016;-78
2021/08/30 02:20:29;;;;;;;;;;;;;;;13.06;100.00;96376.09;5056492;28;19968;-78
2021/08/30 02:22:57;;;;;;;;;;;;;;;13.04;100.00;96381.63;5055979;28;20598;-78
2021/08/30 02:25:24;;;;;;;;;;;;;;;13.02;100.00;96378.44;5055477;28;19977;-78
2021/08/30 02:27:53;;;;;;;;;;;;;;;12.99;100.00;96382.31;5056394;28;19974;-78
2021/08/30 02:30:23;;;;;;;;;;;;;;;12.94;100.00;96382.22;5055925;28;19971;-78
2021/08/30 02:32:51;;;;;;;;;;;;;;;12.89;100.00;96389.22;5056216;28;19992;-78
2021/08/30 02:35:18;;;;;;;;;;;;;;;12.88;100.00;96396.31;5056159;28;19970;-78
2021/08/30 02:37:45;;;;;;;;;;;;;;;12.89;100.00;96395.28;5056515;28;19977;-78
2021/08/30 02:40:12;;;;;;;;;;;;;;;12.90;100.00;96391.63;5054997;28;19969;-77
2021/08/30 02:42:39;;;;;;;;;;;;;;;12.94;100.00;96392.75;5056201;28;20385;-77
2021/08/30 02:45:06;;;;;;;;;;;;;;;12.97;100.00;96392.28;5056183;28;20356;-77
2021/08/30 02:47:32;;;;;;;;;;;;;;;12.99;100.00;96392.84;5055936;28;19973;-76
2021/08/30 02:50:00;;;;;;;;;;;;;;;12.98;100.00;96393.09;5055772;28;19974;-76
2021/08/30 02:52:26;;;;;;;;;;;;;;;12.98;100.00;96387.81;5056542;28;20010;-77
2021/08/30 02:54:52;;;;;;;;;;;;;;;13.00;100.00;96389.19;5055987;28;20380;-77
2021/08/30 02:57:20;;;;;;;;;;;;;;;13.01;100.00;96389.97;5055737;28;19981;-77
2021/08/30 02:59:50;;;;;;;;;;;;;;;13.02;100.00;96390.78;5055619;28;20463;-77
2021/08/30 03:02:17;;;;;;;;;;;;;;;13.03;100.00;96381.84;5055798;28;19970;-77
2021/08/30 03:04:43;;;;;;;;;;;;;;;13.02;100.00;96375.78;5055472;28;19973;-77
2021/08/30 03:07:10;;;;;;;;;;;;;;;13.02;100.00;96375.78;5055793;28;20006;-76
2021/08/30 03:09:36;;;;;;;;;;;;;;;13.02;100.00;96374.97;5055394;28;19999;-77
2021/08/30 03:12:03;;;;;;;;;;;;;;;13.03;100.00;96379.22;5055457;28;20444;-76
2021/08/30 03:14:30;;;;;;;;;;;;;;;13.02;100.00;96369.72;5055123;28;19976;-77
2021/08/30 03:16:58;;;;;;;;;;;;;;;12.97;100.00;96373.06;5055207;28;19973;-77
2021/08/30 03:19:25;;;;;;;;;;;;;;;12.96;100.00;96372.25;5055440;28;20329;-76
2021/08/30 03:21:51;;;;;;;;;;;;;;;12.99;100.00;96370.97;5055047;28;19988;-76
2021/08/30 03:24:19;;;;;;;;;;;;;;;13.00;100.00;96373.38;5055688;28;19978;-77
2021/08/30 03:26:46;;;;;;;;;;;;;;;13.04;100.00;96367.63;5055319;28;19969;-76
2021/08/30 03:29:12;;;;;;;;;;;;;;;13.04;100.00;96371.09;5054865;28;19965;-75
2021/08/30 03:31:38;;;;;;;;;;;;;;;13.05;100.00;96367.41;5055187;28;19981;-76
2021/08/30 03:34:05;;;;;;;;;;;;;;;13.08;100.00;96374.03;5055105;28;19993;-76
2021/08/30 03:36:31;;;;;;;;;;;;;;;13.09;100.00;96367.75;5055003;28;19999;-76
2021/08/30 03:38:57;;;;;;;;;;;;;;;13.06;100.00;96370.84;5054339;28;19998;-76
2021/08/30 03:41:24;;;;;;;;;;;;;;;13.06;100.00;96369.03;5054962;28;19994;-75
2021/08/30 03:43:51;;;;;;;;;;;;;;;13.07;100.00;96365.34;5054113;28;19969;-75
2021/08/30 03:46:17;;;;;;;;;;;;;;;13.08;100.00;96366.97;5054793;28;20025;-76
2021/08/30 03:48:43;;;;;;;;;;;;;;;13.09;100.00;96368.53;5054775;28;19979;-76
2021/08/30 03:51:10;;;;;;;;;;;;;;;13.08;100.00;96368.78;5054989;28;20003;-76
2021/08/30 03:53:36;;;;;;;;;;;;;;;13.05;100.00;96364.00;5054860;28;20045;-76
2021/08/30 03:56:03;;;;;;;;;;;;;;;13.06;100.00;96373.47;5054432;28;19970;-76
2021/08/30 03:58:30;;;;;;;;;;;;;;;13.06;100.00;96369.03;5054569;28;19970;-76
2021/08/30 04:00:57;;;;;;;;;;;;;;;13.05;100.00;96379.78;5054315;28;19969;-76
2021/08/30 04:03:23;;;;;;;;;;;;;;;13.00;100.00;96365.50;5054733;28;19970;-76
2021/08/30 04:05:50;;;;;;;;;;;;;;;12.94;100.00;96370.91;5054427;28;19998;-76
2021/08/30 04:08:16;;;;;;;;;;;;;;;12.92;100.00;96375.59;5054203;28;19964;-76
2021/08/30 04:10:42;;;;;;;;;;;;;;;12.92;100.00;96375.59;5053621;28;19952;-76
2021/08/30 04:13:08;;;;;;;;;;;;;;;12.86;100.00;96373.91;5054139;28;19969;-77
2021/08/30 04:15:34;;;;;;;;;;;;;;;12.86;100.00;96374.69;5054075;28;19950;-76
2021/08/30 04:18:00;;;;;;;;;;;;;;;12.85;100.00;96370.47;5054286;28;20010;-76
2021/08/30 04:20:26;;;;;;;;;;;;;;;12.88;100.00;96369.19;5054015;28;19964;-77
2021/08/30 04:22:52;;;;;;;;;;;;;;;12.89;100.00;96371.59;5053950;28;20022;-76
2021/08/30 04:25:18;;;;;;;;;;;;;;;12.90;100.00;96369.75;5054091;28;19967;-77
2021/08/30 04:27:44;;;;;;;;;;;;;;;12.90;100.00;96364.50;5053961;28;19962;-77
2021/08/30 04:30:10;;;;;;;;;;;;;;;12.92;100.00;96365.06;5054086;28;19958;-77
2021/08/30 04:32:37;;;;;;;;;;;;;;;12.89;100.00;96362.88;5054698;28;20462;-77
2021/08/30 04:35:04;;;;;;;;;;;;;;;12.85;100.00;96365.22;5054198;28;19960;-77
2021/08/30 04:37:30;;;;;;;;;;;;;;;12.84;100.00;96368.84;5053976;28;19954;-76
2021/08/30 04:39:56;;;;;;;;;;;;;;;12.84;100.00;96373.34;5053820;28;19953;-77
2021/08/30 04:42:22;;;;;;;;;;;;;;;12.85;100.00;96378.38;5053832;28;19951;-76
2021/08/30 04:44:49;;;;;;;;;;;;;;;12.88;100.00;96377.09;5053818;28;19958;-76
2021/08/30 04:47:16;;;;;;;;;;;;;;;12.88;100.00;96377.88;5053558;28;19952;-76
2021/08/30 04:49:42;;;;;;;;;;;;;;;12.87;100.00;96371.03;5053850;28;19950;-76
2021/08/30 04:52:09;;;;;;;;;;;;;;;12.88;100.00;96375.25;5053757;28;19954;-76
2021/08/30 04:54:35;;;;;;;;;;;;;;;12.88;100.00;96377.09;5053793;28;20021;-76
2021/08/30 04:57:01;;;;;;;;;;;;;;;12.88;100.00;96382.38;5053314;28;19961;-77
2021/08/30 04:59:26;;;;;;;;;;;;;;;12.88;100.00;96383.16;5054199;28;19959;-76
2021/08/30 05:01:52;;;;;;;;;;;;;;;12.87;100.00;96378.13;5053592;28;19989;-76
2021/08/30 05:04:18;;;;;;;;;;;;;;;12.85;100.00;96377.53;5053590;28;19950;-76
2021/08/30 05:06:44;;;;;;;;;;;;;;;12.84;100.00;96376.75;5053442;28;19974;-76
2021/08/30 05:09:10;;;;;;;;;;;;;;;12.83;100.00;96372.53;5053718;28;19965;-76
2021/08/30 05:11:37;;;;;;;;;;;;;;;12.82;100.00;96381.44;5053281;28;19969;-76
2021/08/30 05:14:03;;;;;;;;;;;;;;;12.83;100.00;96379.63;5053542;28;19977;-76
2021/08/30 05:16:29;;;;;;;;;;;;;;;12.84;100.00;96386.50;5053946;28;20321;-76
2021/08/30 05:18:55;;;;;;;;;;;;;;;12.86;100.00;96385.22;5053422;28;19950;-75
2021/08/30 05:21:21;;;;;;;;;;;;;;;12.87;100.00;96378.13;5053008;28;19959;-76
2021/08/30 05:23:47;;;;;;;;;;;;;;;12.86;100.00;96387.06;5053844;28;19953;-75
2021/08/30 05:26:13;;;;;;;;;;;;;;;12.86;100.00;96385.22;5053424;28;20339;-75
2021/08/30 05:28:39;;;;;;;;;;;;;;;12.89;100.00;96387.41;5053586;28;19950;-75
2021/08/30 05:31:05;;;;;;;;;;;;;;;12.93;100.00;96395.59;5053537;28;19963;-75
2021/08/30 05:33:31;;;;;;;;;;;;;;;12.91;100.00;96372.16;5054514;28;19982;-75
2021/08/30 05:35:57;;;;;;;;;;;;;;;12.93;100.00;96383.25;5057558;28;19965;-76
2021/08/30 05:38:22;;;;;;;;;;;;;;;12.95;100.00;96388.28;5057147;28;19953;-76
2021/08/30 05:40:48;;;;;;;;;;;;;;;12.98;100.00;96386.00;5057241;28;19951;-76
2021/08/30 05:43:14;;;;;;;;;;;;;;;12.98;100.00;96383.34;5056379;28;20015;-75
2021/08/30 05:45:40;;;;;;;;;;;;;;;12.95;100.00;96389.06;5056445;28;19963;-76
2021/08/30 05:48:06;;;;;;;;;;;;;;;12.98;100.00;96387.81;5057177;28;19969;-76
2021/08/30 05:50:32;;;;;;;;;;;;;;;12.98;100.00;96385.19;5056175;28;20037;-76
2021/08/30 05:52:58;;;;;;;;;;;;;;;12.99;100.00;96384.94;5056971;28;19977;-76
2021/08/30 05:55:24;;;;;;;;;;;;;;;13.01;100.00;96379.44;5056797;28;19956;-76
2021/08/30 05:57:50;;;;;;;;;;;;;;;13.05;100.00;96385.84;5057488;28;20043;-76
2021/08/30 06:00:16;;;;;;;;;;;;;;;13.06;100.00;96384.81;5057029;28;19956;-76
2021/08/30 06:02:41;;;;;;;;;;;;;;;13.07;100.00;96385.63;5056944;28;19950;-78
2021/08/30 06:05:08;;;;;;;;;;;;;;;13.06;100.00;96397.16;5056914;28;20370;-76
2021/08/30 06:07:33;;;;;;;;;;;;;;;13.05;100.00;96392.94;5056788;28;19966;-76
2021/08/30 06:09:59;;;;;;;;;;;;;;;13.04;100.00;96397.41;5056352;28;19955;-77
2021/08/30 06:12:25;;;;;;;;;;;;;;;13.06;100.00;96387.47;5056116;28;19983;-76
2021/08/30 06:14:51;;;;;;;;;;;;;;;13.07;100.00;96396.16;5056542;28;19986;-77
2021/08/30 06:17:17;;;;;;;;;;;;;;;13.07;100.00;96393.50;5056779;28;19967;-77
2021/08/30 06:19:43;;;;;;;;;;;;;;;13.07;100.00;96396.16;5056002;28;20075;-77
2021/08/30 06:22:09;;;;;;;;;;;;;;;13.06;100.00;96384.00;5056774;28;20075;-77
2021/08/30 06:24:40;;;;;;;;;;;;;;;13.05;100.00;96393.75;5056248;28;19962;-77
2021/08/30 06:27:07;;;;;;;;;;;;;;;13.05;100.00;96396.38;5056617;28;20314;-76
2021/08/30 06:29:33;;;;;;;;;;;;;;;13.05;100.00;96399.00;5056644;28;20430;-75
2021/08/30 06:31:58;;;;;;;;;;;;;;;13.05;100.00;96395.59;5056305;28;19979;-74
2021/08/30 06:34:26;;;;;;;;;;;;;;;13.05;100.00;96396.38;5056528;28;19977;-74
2021/08/30 06:36:52;;;;;;;;;;;;;;;13.06;100.00;96395.34;5055953;28;19957;-75
2021/08/30 06:39:18;;;;;;;;;;;;;;;13.09;100.00;96399.34;5055678;28;19978;-75
2021/08/30 06:41:44;;;;;;;;;;;;;;;13.11;100.00;96399.91;5056440;28;19964;-75
2021/08/30 06:44:10;;;;;;;;;;;;;;;13.11;100.00;96400.69;5044518;28;19959;-75
2021/08/30 06:46:36;;;;;;;;;;;;;;;13.13;100.00;96396.00;5054337;28;19968;-75
2021/08/30 06:49:02;;;;;;;;;;;;;;;13.15;100.00;96398.41;5054988;28;19954;-75
2021/08/30 06:51:28;;;;;;;;;;;;;;;13.18;100.00;96401.34;5056030;28;19956;-76
2021/08/30 06:53:54;;;;;;;;;;;;;;;13.22;100.00;96412.22;5055932;28;20048;-74
2021/08/30 06:56:20;;;;;;;;;;;;;;;13.29;100.00;96405.03;5055220;28;19957;-74
2021/08/30 06:58:46;;;;;;;;;;;;;;;13.41;100.00;96407.59;5055787;28;19966;-75
2021/08/30 07:01:12;;;;;;;;;;;;;;;13.59;100.00;96404.75;5056000;28;19981;-76
2021/08/30 07:03:38;;;;;;;;;;;;;;;13.72;100.00;96402.84;5055696;28;20042;-76
2021/08/30 07:06:04;;;;;;;;;;;;;;;13.76;100.00;96403.97;5054946;28;19955;-76
2021/08/30 07:08:30;;;;;;;;;;;;;;;13.88;100.00;96403.88;5055183;28;19956;-75
2021/08/30 07:10:55;;;;;;;;;;;;;;;13.99;100.00;96406.44;5055764;28;19955;-76
2021/08/30 07:13:21;;;;;;;;;;;;;;;13.97;100.00;96416.44;5055281;28;19977;-75
2021/08/30 07:15:48;;;;;;;;;;;;;;;13.95;100.00;96413.25;5056035;28;19970;-75
2021/08/30 07:18:14;;;;;;;;;;;;;;;13.96;100.00;96409.56;5055311;28;19961;-76
2021/08/30 07:20:40;;;;;;;;;;;;;;;14.04;100.00;96415.47;5054463;28;19961;-76
2021/08/30 07:23:06;;;;;;;;;;;;;;;14.15;100.00;96414.59;5055570;28;20451;-76
2021/08/30 07:25:32;;;;;;;;;;;;;;;14.24;100.00;96402.59;5055424;28;19969;-76
2021/08/30 07:27:58;;;;;;;;;;;;;;;14.27;100.00;96407.38;5055374;28;19952;-76
2021/08/30 07:30:24;;;;;;;;;;;;;;;14.18;98.75;96411.47;5055671;28;19959;-76
2021/08/30 07:32:50;;;;;;;;;;;;;;;14.14;100.00;96410.38;5055282;28;19999;-76
2021/08/30 07:35:16;;;;;;;;;;;;;;;14.09;100.00;96416.38;5055041;28;19994;-77
2021/08/30 07:37:42;;;;;;;;;;;;;;;14.05;100.00;96407.34;5053441;28;20034;-76
2021/08/30 07:40:08;;;;;;;;;;;;;;;14.03;100.00;96404.13;5055196;28;19963;-77
2021/08/30 07:42:35;;;;;;;;;;;;;;;13.98;100.00;96409.31;5055449;28;19956;-76
2021/08/30 07:45:01;;;;;;;;;;;;;;;13.98;100.00;96418.06;5054952;28;20344;-77
2021/08/30 07:47:27;;;;;;;;;;;;;;;14.01;100.00;96416.75;5054874;28;19958;-76
2021/08/30 07:49:53;;;;;;;;;;;;;;;14.00;100.00;96410.66;5054772;28;19959;-76
2021/08/30 07:52:20;;;;;;;;;;;;;;;14.02;100.00;96419.13;5054046;28;19954;-76
2021/08/30 07:54:47;;;;;;;;;;;;;;;14.04;100.00;96420.75;5055144;28;19985;-76
2021/08/30 07:57:13;;;;;;;;;;;;;;;14.05;100.00;96423.16;5054035;28;19960;-76
2021/08/30 07:59:39;;;;;;;;;;;;;;;14.04;100.00;96426.81;5054509;28;19954;-76
2021/08/30 08:02:05;;;;;;;;;;;;;;;14.04;100.00;96426.81;5055077;28;19973;-76
2021/08/30 08:04:31;;;;;;;;;;;;;;;14.04;100.00;96428.66;5054421;28;19964;-76
2021/08/30 08:06:56;;;;;;;;;;;;;;;14.02;100.00;96421.78;5054458;28;19962;-76
2021/08/30 08:09:23;;;;;;;;;;;;;;;14.02;100.00;96434.16;5054576;28;19957;-76
2021/08/30 08:11:49;;;;;;;;;;;;;;;14.02;100.00;96434.16;5052415;28;19957;-77
2021/08/30 08:14:15;;;;;;;;;;;;;;;14.02;100.00;96432.31;5054695;28;19969;-76
2021/08/30 08:16:41;;;;;;;;;;;;;;;14.05;100.00;96446.06;5054402;28;20411;-76
2021/08/30 08:19:07;;;;;;;;;;;;;;;14.07;100.00;96452.72;5054020;28;20007;-76
2021/08/30 08:21:34;;;;;;;;;;;;;;;14.09;100.00;96455.09;5054479;28;20351;-76
2021/08/30 08:24:01;;;;;;;;;;;;;;;14.14;100.00;96449.91;5054371;28;20425;-76
2021/08/30 08:26:29;;;;;;;;;;;;;;;14.26;100.00;96453.28;5054139;28;19953;-77
2021/08/30 08:28:54;;;;;;;;;;;;;;;14.34;100.00;96452.06;5052352;28;20322;-76
2021/08/30 08:31:21;;;;;;;;;;;;;;;14.40;100.00;96459.81;5054241;28;20005;-76
2021/08/30 08:33:48;;;;;;;;;;;;;;;14.47;100.00;96459.66;5053766;28;19974;-76
2021/08/30 08:36:16;;;;;;;;;;;;;;;14.46;100.00;96455.41;5054319;28;20020;-76
2021/08/30 08:38:42;;;;;;;;;;;;;;;14.46;100.00;96458.03;5053949;28;19962;-78
2021/08/30 08:41:08;;;;;;;;;;;;;;;14.57;98.62;96470.38;5052849;28;19951;-77
2021/08/30 08:43:35;;;;;;;;;;;;;;;14.69;99.33;96469.47;5053752;28;19971;-77
2021/08/30 08:46:01;;;;;;;;;;;;;;;14.83;97.87;96470.72;5053669;28;19959;-77
2021/08/30 08:48:29;;;;;;;;;;;;;;;14.89;95.55;96467.13;5054085;28;19953;-77
2021/08/30 08:50:55;;;;;;;;;;;;;;;14.90;96.83;96473.97;5053790;28;19953;-76
2021/08/30 08:53:21;;;;;;;;;;;;;;;14.87;97.94;96474.47;5053831;28;20437;-75
2021/08/30 08:55:47;;;;;;;;;;;;;;;14.84;98.30;96479.44;5053566;28;19959;-75
2021/08/30 08:58:14;;;;;;;;;;;;;;;14.84;98.68;96479.44;5053560;28;20343;-75
2021/08/30 09:00:40;;;;;;;;;;;;;;;14.88;99.53;96475.28;5053306;28;20312;-76
2021/08/30 09:03:32;;;;;;;;;;;;;;;14.90;98.67;96478.47;5053743;28;19958;-76
2021/08/30 09:06:03;;;;;;;;;;;;;;;14.89;97.33;96480.31;5044736;28;20030;-76
2021/08/30 09:08:30;;;;;;;;;;;;;;;14.90;96.83;96476.63;5052384;28;19959;-76
2021/08/30 09:10:57;;;;;;;;;;;;;;;14.90;97.69;96473.97;5053723;28;19953;-76
2021/08/30 09:13:27;;;;;;;;;;;;;;;14.88;96.65;96483.97;5053376;28;19963;-76
2021/08/30 09:15:54;;;;;;;;;;;;;;;14.87;97.42;96484.25;5053526;28;19954;-76
2021/08/30 09:18:26;;;;;;;;;;;;;;;14.85;95.50;96481.06;5052760;28;19954;-76
2021/08/30 09:20:52;;;;;;;;;;;;;;;14.82;96.43;96488.41;5053406;28;19966;-76
2021/08/30 09:23:18;;;;;;;;;;;;;;;14.77;97.15;96485.69;5053435;28;20456;-76
2021/08/30 09:25:44;;;;;;;;;;;;;;;14.72;97.70;96483.00;5053275;28;20008;-76
2021/08/30 09:28:10;;;;;;;;;;;;;;;14.70;98.36;96487.72;5053309;28;19966;-76
2021/08/30 09:30:36;;;;;;;;;;;;;;;14.67;98.10;96493.47;5053458;28;20051;-75
2021/08/30 09:33:02;;;;;;;;;;;;;;;14.68;98.54;96492.44;5053730;28;20006;-74
2021/08/30 09:35:28;;;;;;;;;;;;;;;14.70;99.44;96492.19;5053206;28;19977;-75
2021/08/30 09:37:54;;;;;;;;;;;;;;;14.75;98.26;96489.63;5053116;28;19955;-74
2021/08/30 09:40:22;;;;;;;;;;;;;;;14.81;99.25;96492.09;5053068;28;19963;-75
2021/08/30 09:42:53;;;;;;;;;;;;;;;14.78;98.25;96497.88;5053377;28;19969;-75
2021/08/30 09:45:20;;;;;;;;;;;;;;;14.71;98.99;96496.44;5053237;28;19957;-73
2021/08/30 09:47:57;;;;;;;;;;;;;;;14.65;99.73;96495.53;5053610;28;20333;-74
2021/08/30 09:50:30;;;;;;;;;;;;;;;14.58;100.00;96493.09;5053001;28;19969;-75
2021/08/30 09:52:57;;;;;;;;;;;;;;;14.50;100.00;96493.47;5053330;28;19964;-74
2021/08/30 09:55:23;;;;;;;;;;;;;;;14.45;100.00;96496.03;5053218;28;19982;-74
2021/08/30 09:57:50;;;;;;;;;;;;;;;14.41;100.00;96493.06;5053061;28;19959;-74
2021/08/30 10:00:17;;;;;;;;;;;;;;;14.37;99.69;96486.69;5052454;28;19963;-74
2021/08/30 10:02:46;;;;;;;;;;;;;;;14.32;100.00;96493.69;5053268;28;19963;-73
2021/08/30 10:05:13;;;;;;;;;;;;;;;14.26;100.00;96494.66;5052239;28;19978;-74
2021/08/30 10:07:39;;;;;;;;;;;;;;;14.26;100.00;96505.22;5052480;28;19960;-74
2021/08/30 10:10:06;;;;;;;;;;;;;;;14.28;100.00;96492.59;5052992;28;19964;-74
2021/08/30 10:12:32;;;;;;;;;;;;;;;14.30;100.00;96490.50;5053257;28;19975;-74
2021/08/30 10:14:58;;;;;;;;;;;;;;;14.33;100.00;96490.84;5053373;28;19976;-74
2021/08/30 10:17:24;;;;;;;;;;;;;;;14.35;100.00;96499.31;5052850;28;20351;-74
2021/08/30 10:19:58;;;;;;;;;;;;;;;14.38;100.00;96501.47;5054414;28;20427;-74
2021/08/30 10:22:24;;;;;;;;;;;;;;;14.44;100.00;96499.69;5056496;28;19998;-74
2021/08/30 10:24:51;;;;;;;;;;;;;;;14.49;100.00;96489.25;5056583;28;20446;-75
2021/08/30 10:27:28;;;;;;;;;;;;;;;14.57;100.00;96495.97;5056551;28;19972;-74
2021/08/30 10:30:01;;;;;;;;;;;;;;;14.62;100.00;96498.69;5055641;28;19968;-74
2021/08/30 10:32:30;;;;;;;;;;;;;;;14.64;99.53;96501.09;5056236;28;20418;-75
2021/08/30 10:34:56;;;;;;;;;;;;;;;14.61;99.14;96502.34;5056424;28;20329;-75
2021/08/30 10:37:22;;;;;;;;;;;;;;;14.60;100.00;96503.41;5054280;28;19966;-75
2021/08/30 10:39:52;;;;;;;;;;;;;;;14.61;100.00;96497.91;5056246;28;19967;-76
2021/08/30 10:42:18;;;;;;;;;;;;;;;14.66;100.00;96504.25;5046157;28;19975;-75
2021/08/30 10:44:55;;;;;;;;;;;;;;;14.70;100.00;96502.75;5055878;28;19968;-75
2021/08/30 10:47:25;;;;;;;;;;;;;;;14.71;99.80;96494.59;5056496;28;20447;-75
2021/08/30 10:49:52;;;;;;;;;;;;;;;14.71;99.48;96507.78;5055969;28;19968;-75
2021/08/30 10:52:18;;;;;;;;;;;;;;;14.73;99.00;96503.06;5056037;28;19983;-75
2021/08/30 10:54:57;;;;;;;;;;;;;;;14.78;100.00;96504.97;5056134;28;19989;-75
2021/08/30 10:57:33;;;;;;;;;;;;;;;14.79;98.85;96504.72;5055704;28;19972;-75
2021/08/30 10:59:59;;;;;;;;;;;;;;;14.78;97.71;96510.25;5055842;28;19972;-75
2021/08/30 11:02:36;;;;;;;;;;;;;;;14.78;98.81;96505.78;5056001;28;20390;-75
2021/08/30 11:05:02;;;;;;;;;;;;;;;14.84;100.00;96509.28;5055683;28;19981;-75
2021/08/30 11:07:28;;;;;;;;;;;;;;;14.91;100.00;96503.81;5055709;28;20358;-75
2021/08/30 11:09:54;;;;;;;;;;;;;;;14.97;99.32;96506.31;5054819;28;19972;-76
2021/08/30 11:12:20;;;;;;;;;;;;;;;15.07;96.81;96513.53;5055461;28;19969;-75
2021/08/30 11:14:53;;;;;;;;;;;;;;;15.18;97.13;96509.19;5055583;28;20425;-75
2021/08/30 11:17:24;;;;;;;;;;;;;;;15.30;96.90;96507.22;5055890;28;19962;-75
2021/08/30 11:19:52;;;;;;;;;;;;;;;15.40;97.90;96506.56;5055460;28;19968;-75
2021/08/30 11:22:18;;;;;;;;;;;;;;;15.46;94.99;96510.06;5055082;28;20034;-76
2021/08/30 11:24:44;;;;;;;;;;;;;;;15.48;96.39;96506.13;5055410;28;19970;-76
2021/08/30 11:27:20;;;;;;;;;;;;;;;15.48;95.97;96508.78;5055359;28;20431;-76
2021/08/30 11:29:46;;;;;;;;;;;;;;;15.56;95.81;96510.97;5055195;28;19973;-76
2021/08/30 11:32:16;;;;;;;;;;;;;;;15.57;91.21;96504.63;5055584;28;20435;-76
2021/08/30 11:34:42;;;;;;;;;;;;;;;15.57;93.50;96517.84;5055062;28;19993;-76
2021/08/30 11:37:10;;;;;;;;;;;;;;;15.58;93.25;96516.00;5055098;28;19992;-76
2021/08/30 11:39:38;;;;;;;;;;;;;;;15.66;94.71;96518.19;5055076;28;19971;-76
2021/08/30 11:42:12;;;;;;;;;;;;;;;15.71;93.22;96517.47;5055568;28;19975;-76
2021/08/30 11:44:39;;;;;;;;;;;;;;;15.77;94.72;96514.66;5055000;28;19964;-76
2021/08/30 11:47:08;;;;;;;;;;;;;;;15.78;93.75;96513.59;5054952;28;19963;-76
2021/08/30 11:49:57;;;;;;;;;;;;;;;15.74;93.09;96517.00;5055008;28;20001;-76
2021/08/30 11:52:24;;;;;;;;;;;;;;;15.66;93.23;96517.41;5055123;28;19977;-76
2021/08/30 11:54:58;;;;;;;;;;;;;;;15.56;93.39;96515.44;5053735;28;19985;-76
2021/08/30 11:57:25;;;;;;;;;;;;;;;15.50;93.00;96516.47;5054955;28;19969;-76
2021/08/30 11:59:52;;;;;;;;;;;;;;;15.44;93.07;96523.53;5054550;28;19978;-77
2021/08/30 12:02:19;;;;;;;;;;;;;;;15.37;92.90;96529.00;5054716;28;19973;-76
2021/08/30 12:04:46;;;;;;;;;;;;;;;15.37;93.94;96529.00;5054611;28;19969;-77
2021/08/30 12:07:13;;;;;;;;;;;;;;;15.43;93.33;96529.84;5054978;28;19969;-76
2021/08/30 12:09:43;;;;;;;;;;;;;;;15.52;93.91;96533.66;5053915;28;19992;-76
2021/08/30 12:12:15;;;;;;;;;;;;;;;15.77;93.99;96527.06;5054499;28;19965;-76
2021/08/30 12:14:52;;;;;;;;;;;;;;;15.99;92.79;96535.75;5054170;28;19977;-77
2021/08/30 12:17:20;;;;;;;;;;;;;;;16.15;90.46;96533.28;5054676;28;19972;-77
2021/08/30 12:19:46;;;;;;;;;;;;;;;16.20;90.76;96526.16;5054318;28;19976;-77
2021/08/30 12:22:21;;;;;;;;;;;;;;;16.23;89.42;96528.31;5051943;28;20008;-77
2021/08/30 12:24:47;;;;;;;;;;;;;;;16.24;91.80;96529.91;5052662;28;19966;-77
2021/08/30 12:27:18;;;;;;;;;;;;;;;16.23;89.58;96523.03;5052978;28;20072;-77
2021/08/30 12:29:45;;;;;;;;;;;;;;;16.18;88.42;96522.97;5054410;28;19973;-77
2021/08/30 12:32:11;;;;;;;;;;;;;;;16.17;87.70;96521.38;5052540;28;20377;-77
2021/08/30 12:34:40;;;;;;;;;;;;;;;16.33;89.52;96518.84;5053768;28;19981;-77
2021/08/30 12:37:06;;;;;;;;;;;;;;;16.66;88.78;96517.78;5052157;28;19969;-77
2021/08/30 12:39:32;;;;;;;;;;;;;;;16.77;85.74;96519.44;5053440;28;19976;-77
2021/08/30 12:41:57;;;;;;;;;;;;;;;16.72;84.95;96513.31;5053582;28;19969;-77
2021/08/30 12:44:23;;;;;;;;;;;;;;;16.63;86.24;96518.28;5052494;28;20365;-77